Wetterdaten: Woche 22.04.13 - 28.04.13 (KW17)
Datum Zeit Temp. A. Feuchte A. Luftdruck Regen Wind Richtung Taupunkt Windchill Windben
22.04.2013 00:00 11,0 C 67 % 1015,3 hPa 0,0 l/m 0,1 km/h (0 Bft) O-SO 5,0 C 11,0 C 1,2 km/h (1 Bft)
22.04.2013 01:00 11,3 C 64 % 1015,0 hPa 0,0 l/m 0,9 km/h (0 Bft) SO 4,7 C 11,3 C 2,7 km/h (1 Bft)
22.04.2013 02:00 9,9 C 69 % 1014,5 hPa 0,0 l/m 0,0 km/h (0 Bft) N 4,5 C 9,9 C 0,0 km/h (0 Bft)
22.04.2013 03:00 8,8 C 74 % 1014,3 hPa 0,0 l/m 0,0 km/h (0 Bft) N 4,3 C 8,8 C 0,0 km/h (0 Bft)
22.04.2013 04:00 7,6 C 83 % 1014,2 hPa 0,0 l/m 0,0 km/h (0 Bft) N 4,8 C 7,6 C 0,0 km/h (0 Bft)
22.04.2013 05:00 8,3 C 80 % 1014,2 hPa 0,0 l/m 0,3 km/h (0 Bft) W-SW 5,1 C 8,3 C 1,3 km/h (1 Bft)
22.04.2013 06:00 8,7 C 79 % 1014,3 hPa 0,0 l/m 0,0 km/h (0 Bft) N 5,2 C 8,7 C 0,4 km/h (0 Bft)
22.04.2013 07:00 8,9 C 79 % 1014,6 hPa 0,0 l/m 0,3 km/h (0 Bft) SW 5,4 C 8,9 C 0,8 km/h (0 Bft)
22.04.2013 08:00 10,0 C 77 % 1015,1 hPa 0,0 l/m 2,7 km/h (1 Bft) W 6,1 C 10,0 C 7,4 km/h (2 Bft)
22.04.2013 09:00 10,4 C 77 % 1015,5 hPa 0,0 l/m 2,0 km/h (1 Bft) W 6,7 C 10,4 C 6,0 km/h (2 Bft)
22.04.2013 10:00 10,8 C 73 % 1015,9 hPa 0,0 l/m 4,0 km/h (1 Bft) W-NW 6,2 C 10,8 C 10,6 km/h (2 Bft)
22.04.2013 11:00 10,8 C 72 % 1016,2 hPa 0,0 l/m 4,7 km/h (1 Bft) W-NW 5,8 C 10,8 C 10,9 km/h (2 Bft)
22.04.2013 12:00 10,9 C 71 % 1016,5 hPa 0,0 l/m 3,7 km/h (1 Bft) W-NW 5,8 C 10,9 C 8,7 km/h (2 Bft)
22.04.2013 13:00 10,9 C 70 % 1016,6 hPa 0,0 l/m 3,2 km/h (1 Bft) W 5,5 C 10,9 C 8,6 km/h (2 Bft)
22.04.2013 14:00 11,4 C 63 % 1016,5 hPa 0,0 l/m 4,0 km/h (1 Bft) W-NW 4,7 C 11,5 C 9,9 km/h (2 Bft)
22.04.2013 15:00 12,9 C 53 % 1016,2 hPa 0,0 l/m 4,0 km/h (1 Bft) S-SW 3,5 C 12,9 C 11,3 km/h (2 Bft)
22.04.2013 16:00 13,8 C 48 % 1015,7 hPa 0,0 l/m 4,0 km/h (1 Bft) S-SW 2,9 C 13,8 C 10,3 km/h (2 Bft)
22.04.2013 17:00 15,1 C 36 % 1015,6 hPa 0,0 l/m 4,4 km/h (1 Bft) W-NW -0,1 C 15,1 C 11,3 km/h (2 Bft)
22.04.2013 18:00 15,3 C 29 % 1015,4 hPa 0,0 l/m 3,9 km/h (1 Bft) SW -2,8 C 15,3 C 9,9 km/h (2 Bft)
22.04.2013 19:00 14,5 C 36 % 1015,6 hPa 0,0 l/m 1,6 km/h (1 Bft) SW -0,6 C 14,5 C 5,6 km/h (2 Bft)
22.04.2013 20:00 11,0 C 49 % 1015,8 hPa 0,0 l/m 0,4 km/h (0 Bft) SW 0,5 C 11,0 C 0,9 km/h (0 Bft)
22.04.2013 21:00 7,1 C 65 % 1016,0 hPa 0,0 l/m 0,3 km/h (0 Bft) O-SO 0,8 C 7,1 C 0,7 km/h (0 Bft)
22.04.2013 22:00 4,8 C 73 % 1016,0 hPa 0,0 l/m 0,0 km/h (0 Bft) N 0,4 C 4,8 C 0,3 km/h (0 Bft)
22.04.2013 23:00 3,5 C 79 % 1016,0 hPa 0,0 l/m 0,0 km/h (0 Bft) N 0,3 C 3,5 C 0,0 km/h (0 Bft)
23.04.2013 00:00 2,5 C 82 % 1016,1 hPa 0,0 l/m 0,0 km/h (0 Bft) N -0,2 C 2,5 C 0,0 km/h (0 Bft)
23.04.2013 01:00 2,2 C 83 % 1016,0 hPa 0,0 l/m 0,0 km/h (0 Bft) N -0,4 C 2,2 C 0,0 km/h (0 Bft)
23.04.2013 02:00 1,8 C 88 % 1015,7 hPa 0,0 l/m 0,0 km/h (0 Bft) N 0,0 C 1,8 C 0,0 km/h (0 Bft)
23.04.2013 03:00 1,8 C 89 % 1015,4 hPa 0,0 l/m 0,0 km/h (0 Bft) N 0,2 C 1,8 C 0,0 km/h (0 Bft)
23.04.2013 04:00 4,4 C 83 % 1015,4 hPa 0,0 l/m 0,4 km/h (0 Bft) S-SW 1,8 C 4,4 C 1,3 km/h (1 Bft)
23.04.2013 05:00 6,4 C 76 % 1015,4 hPa 0,0 l/m 1,9 km/h (1 Bft) SW 2,4 C 6,4 C 4,8 km/h (1 Bft)
23.04.2013 06:00 7,2 C 72 % 1015,4 hPa 0,0 l/m 3,1 km/h (1 Bft) S-SW 2,4 C 7,2 C 6,3 km/h (2 Bft)
23.04.2013 07:00 8,5 C 70 % 1015,4 hPa 0,0 l/m 5,3 km/h (1 Bft) S-SW 3,3 C 8,5 C 10,6 km/h (2 Bft)
23.04.2013 08:00 10,2 C 67 % 1015,9 hPa 0,0 l/m 4,8 km/h (1 Bft) SW 4,4 C 10,2 C 12,6 km/h (3 Bft)
23.04.2013 09:00 12,5 C 63 % 1016,2 hPa 0,0 l/m 8,3 km/h (2 Bft) SW 5,5 C 11,4 C 20,4 km/h (4 Bft)
23.04.2013 10:00 12,9 C 63 % 1016,7 hPa 0,0 l/m 8,9 km/h (2 Bft) W 6,0 C 11,5 C 20,1 km/h (4 Bft)
23.04.2013 11:00 13,4 C 64 % 1017,1 hPa 0,0 l/m 8,7 km/h (2 Bft) W-NW 6,8 C 12,0 C 18,9 km/h (3 Bft)
23.04.2013 12:00 13,0 C 68 % 1017,5 hPa 0,0 l/m 7,6 km/h (2 Bft) SW 7,2 C 12,3 C 19,3 km/h (3 Bft)
23.04.2013 13:00 13,1 C 71 % 1017,8 hPa 0,0 l/m 7,3 km/h (2 Bft) W-NW 8,0 C 12,5 C 17,8 km/h (3 Bft)
23.04.2013 14:00 13,5 C 72 % 1018,6 hPa 0,0 l/m 7,3 km/h (2 Bft) W-NW 8,6 C 12,8 C 18,1 km/h (3 Bft)
23.04.2013 15:00 13,2 C 75 % 1019,1 hPa 0,0 l/m 6,7 km/h (2 Bft) W-NW 8,8 C 12,7 C 15,7 km/h (3 Bft)
23.04.2013 16:00 13,0 C 77 % 1019,4 hPa 0,0 l/m 6,1 km/h (2 Bft) W 9,0 C 12,9 C 15,0 km/h (3 Bft)
23.04.2013 17:00 13,6 C 74 % 1019,7 hPa 0,0 l/m 6,8 km/h (2 Bft) W-NW 9,2 C 13,3 C 17,2 km/h (3 Bft)
23.04.2013 18:00 13,2 C 76 % 1020,0 hPa 0,0 l/m 6,4 km/h (2 Bft) W-NW 9,0 C 12,8 C 16,0 km/h (3 Bft)
23.04.2013 19:00 12,9 C 77 % 1020,2 hPa 0,0 l/m 5,1 km/h (1 Bft) SW 9,0 C 12,9 C 13,4 km/h (3 Bft)
23.04.2013 20:00 12,5 C 79 % 1020,8 hPa 0,0 l/m 4,0 km/h (1 Bft) SW 8,9 C 12,5 C 10,1 km/h (2 Bft)
23.04.2013 21:00 12,2 C 80 % 1021,4 hPa 0,0 l/m 3,5 km/h (1 Bft) W-NW 8,8 C 12,2 C 9,1 km/h (2 Bft)
23.04.2013 22:00 12,1 C 80 % 1022,0 hPa 0,0 l/m 3,7 km/h (1 Bft) W 8,8 C 12,1 C 9,3 km/h (2 Bft)
23.04.2013 23:00 11,2 C 82 % 1022,8 hPa 0,0 l/m 2,0 km/h (1 Bft) W 8,2 C 11,2 C 6,4 km/h (2 Bft)
24.04.2013 00:00 9,8 C 83 % 1023,3 hPa 0,0 l/m 1,2 km/h (1 Bft) NW 7,0 C 9,8 C 4,3 km/h (1 Bft)
24.04.2013 01:00 8,8 C 84 % 1023,7 hPa 0,0 l/m 0,0 km/h (0 Bft) N 6,2 C 8,8 C 0,7 km/h (0 Bft)
24.04.2013 02:00 7,4 C 87 % 1024,1 hPa 0,0 l/m 0,0 km/h (0 Bft) N 5,3 C 7,4 C 0,0 km/h (0 Bft)
24.04.2013 03:00 5,8 C 90 % 1024,6 hPa 0,0 l/m 0,0 km/h (0 Bft) N 4,2 C 5,8 C 0,0 km/h (0 Bft)
24.04.2013 04:00 4,3 C 93 % 1024,7 hPa 0,0 l/m 0,0 km/h (0 Bft) N 3,4 C 4,3 C 0,0 km/h (0 Bft)
24.04.2013 05:00 3,1 C 94 % 1024,8 hPa 0,0 l/m 0,0 km/h (0 Bft) N 2,3 C 3,1 C 0,0 km/h (0 Bft)
24.04.2013 06:00 2,5 C 95 % 1025,1 hPa 0,0 l/m 0,0 km/h (0 Bft) N 1,7 C 2,5 C 0,0 km/h (0 Bft)
24.04.2013 07:00 4,8 C 95 % 1025,6 hPa 0,0 l/m 0,0 km/h (0 Bft) N 4,1 C 4,8 C 0,0 km/h (0 Bft)
24.04.2013 08:00 8,6 C 86 % 1026,0 hPa 0,0 l/m 1,7 km/h (1 Bft) SW 6,4 C 8,6 C 3,9 km/h (1 Bft)
24.04.2013 09:00 11,6 C 74 % 1026,2 hPa 0,0 l/m 3,5 km/h (1 Bft) SW 7,0 C 11,6 C 7,8 km/h (2 Bft)
24.04.2013 10:00 13,7 C 60 % 1026,2 hPa 0,0 l/m 4,9 km/h (1 Bft) SW 6,0 C 13,7 C 10,4 km/h (2 Bft)
24.04.2013 11:00 15,2 C 54 % 1025,9 hPa 0,0 l/m 5,9 km/h (2 Bft) SW 5,8 C 14,9 C 12,8 km/h (3 Bft)
24.04.2013 12:00 16,7 C 53 % 1025,3 hPa 0,0 l/m 6,1 km/h (2 Bft) SW 7,0 C 16,5 C 13,6 km/h (3 Bft)
24.04.2013 13:00 17,9 C 51 % 1024,7 hPa 0,0 l/m 5,9 km/h (2 Bft) SW 7,7 C 17,9 C 14,0 km/h (3 Bft)
24.04.2013 14:00 18,7 C 50 % 1024,1 hPa 0,0 l/m 7,4 km/h (2 Bft) SW 8,1 C 18,2 C 18,9 km/h (3 Bft)
24.04.2013 15:00 19,6 C 49 % 1023,3 hPa 0,0 l/m 6,7 km/h (2 Bft) SW 8,7 C 19,3 C 16,5 km/h (3 Bft)
24.04.2013 16:00 20,1 C 49 % 1022,5 hPa 0,0 l/m 6,8 km/h (2 Bft) SW 9,2 C 19,9 C 16,8 km/h (3 Bft)
24.04.2013 17:00 20,4 C 50 % 1022,2 hPa 0,0 l/m 5,6 km/h (2 Bft) SW 9,6 C 20,4 C 13,8 km/h (3 Bft)
24.04.2013 18:00 20,3 C 50 % 1021,8 hPa 0,0 l/m 4,7 km/h (1 Bft) W-NW 9,6 C 20,3 C 11,2 km/h (2 Bft)
24.04.2013 19:00 19,6 C 53 % 1021,7 hPa 0,0 l/m 3,9 km/h (1 Bft) W-NW 9,8 C 19,7 C 9,4 km/h (2 Bft)
24.04.2013 20:00 17,8 C 59 % 1021,6 hPa 0,0 l/m 0,8 km/h (0 Bft) SW 9,7 C 17,8 C 3,3 km/h (1 Bft)
24.04.2013 21:00 15,9 C 66 % 1021,9 hPa 0,0 l/m 0,4 km/h (0 Bft) SW 9,5 C 15,9 C 2,7 km/h (1 Bft)
24.04.2013 22:00 14,9 C 69 % 1022,1 hPa 0,0 l/m 0,7 km/h (0 Bft) SW 9,3 C 14,9 C 2,3 km/h (1 Bft)
24.04.2013 23:00 13,4 C 75 % 1022,1 hPa 0,0 l/m 0,0 km/h (0 Bft) N 9,0 C 13,4 C 0,8 km/h (0 Bft)
25.04.2013 00:00 13,3 C 76 % 1022,4 hPa 0,0 l/m 1,7 km/h (1 Bft) W-NW 9,2 C 13,3 C 4,7 km/h (1 Bft)
25.04.2013 01:00 13,5 C 78 % 1023,0 hPa 0,0 l/m 3,7 km/h (1 Bft) NW 9,7 C 13,5 C 7,8 km/h (2 Bft)
25.04.2013 02:00 12,3 C 84 % 1023,2 hPa 0,0 l/m 0,3 km/h (0 Bft) NW 9,7 C 12,3 C 0,5 km/h (0 Bft)
25.04.2013 03:00 12,4 C 84 % 1023,7 hPa 0,0 l/m 0,7 km/h (0 Bft) W-NW 9,8 C 12,4 C 2,5 km/h (1 Bft)
25.04.2013 04:00 12,4 C 85 % 1023,8 hPa 0,0 l/m 0,3 km/h (0 Bft) W-NW 9,9 C 12,4 C 0,5 km/h (0 Bft)
25.04.2013 05:00 12,2 C 87 % 1023,6 hPa 0,0 l/m 0,0 km/h (0 Bft) S-SW 10,0 C 12,2 C 0,5 km/h (0 Bft)
25.04.2013 06:00 12,1 C 88 % 1023,6 hPa 0,0 l/m 0,5 km/h (0 Bft) S-SW 10,1 C 12,1 C 2,3 km/h (1 Bft)
25.04.2013 07:00 12,4 C 87 % 1024,2 hPa 0,0 l/m 0,5 km/h (0 Bft) N-NW 10,4 C 12,4 C 2,3 km/h (1 Bft)
25.04.2013 08:00 13,4 C 85 % 1024,6 hPa 0,0 l/m 0,9 km/h (0 Bft) W 10,9 C 13,4 C 2,0 km/h (1 Bft)
25.04.2013 09:00 14,7 C 82 % 1024,8 hPa 0,0 l/m 3,1 km/h (1 Bft) NW 11,6 C 14,7 C 5,9 km/h (2 Bft)
25.04.2013 10:00 15,8 C 77 % 1024,8 hPa 0,0 l/m 2,3 km/h (1 Bft) W-NW 11,9 C 15,8 C 6,3 km/h (2 Bft)
25.04.2013 11:00 16,2 C 77 % 1025,0 hPa 0,0 l/m 2,7 km/h (1 Bft) W-NW 12,1 C 16,2 C 6,7 km/h (2 Bft)
25.04.2013 12:00 16,4 C 77 % 1024,6 hPa 0,0 l/m 3,1 km/h (1 Bft) SW 12,4 C 16,4 C 6,9 km/h (2 Bft)
25.04.2013 13:00 17,9 C 72 % 1023,9 hPa 0,0 l/m 3,7 km/h (1 Bft) SW 12,6 C 17,9 C 9,8 km/h (2 Bft)
25.04.2013 14:00 19,8 C 62 % 1023,4 hPa 0,0 l/m 3,9 km/h (1 Bft) SW 12,2 C 19,8 C 9,5 km/h (2 Bft)
25.04.2013 15:00 20,6 C 56 % 1022,4 hPa 0,0 l/m 4,4 km/h (1 Bft) SW 11,6 C 20,6 C 11,0 km/h (2 Bft)
25.04.2013 16:00 21,2 C 55 % 1021,4 hPa 0,0 l/m 3,6 km/h (1 Bft) S-SW 11,9 C 21,2 C 9,6 km/h (2 Bft)
25.04.2013 17:00 21,7 C 54 % 1020,6 hPa 0,0 l/m 4,5 km/h (1 Bft) SW 11,8 C 21,7 C 11,2 km/h (2 Bft)
25.04.2013 18:00 21,0 C 56 % 1019,8 hPa 0,0 l/m 4,5 km/h (1 Bft) S 11,9 C 21,0 C 9,7 km/h (2 Bft)
25.04.2013 19:00 20,4 C 58 % 1018,8 hPa 0,0 l/m 1,7 km/h (1 Bft) S-SW 11,9 C 20,4 C 4,3 km/h (1 Bft)
25.04.2013 20:00 19,3 C 63 % 1018,0 hPa 0,0 l/m 0,7 km/h (0 Bft) SO 12,0 C 19,3 C 2,4 km/h (1 Bft)
25.04.2013 21:00 17,4 C 70 % 1017,7 hPa 0,0 l/m 0,4 km/h (0 Bft) S-SO 11,8 C 17,4 C 1,6 km/h (1 Bft)
25.04.2013 22:00 17,1 C 73 % 1017,1 hPa 0,0 l/m 0,8 km/h (0 Bft) S-SO 12,1 C 17,1 C 3,2 km/h (1 Bft)
25.04.2013 23:00 16,9 C 76 % 1016,3 hPa 0,0 l/m 0,0 km/h (0 Bft) N 12,5 C 16,9 C 0,9 km/h (0 Bft)
26.04.2013 00:00 16,5 C 78 % 1015,4 hPa 0,0 l/m 0,5 km/h (0 Bft) S-SO 12,6 C 16,5 C 2,3 km/h (1 Bft)
26.04.2013 01:00 15,0 C 82 % 1014,4 hPa 0,0 l/m 0,0 km/h (0 Bft) N 12,0 C 15,0 C 0,1 km/h (0 Bft)
26.04.2013 02:00 12,5 C 88 % 1013,5 hPa 0,0 l/m 0,0 km/h (0 Bft) N 10,5 C 12,5 C 0,0 km/h (0 Bft)
26.04.2013 03:00 10,7 C 92 % 1012,8 hPa 0,0 l/m 0,0 km/h (0 Bft) N 9,5 C 10,7 C 0,0 km/h (0 Bft)
26.04.2013 04:00 9,9 C 94 % 1012,2 hPa 0,0 l/m 0,0 km/h (0 Bft) N 9,0 C 9,9 C 0,0 km/h (0 Bft)
26.04.2013 05:00 9,4 C 95 % 1011,7 hPa 0,0 l/m 0,0 km/h (0 Bft) N 8,7 C 9,4 C 0,0 km/h (0 Bft)
26.04.2013 06:00 8,9 C 95 % 1011,4 hPa 0,0 l/m 0,0 km/h (0 Bft) N 8,2 C 8,9 C 0,0 km/h (0 Bft)
26.04.2013 07:00 11,6 C 95 % 1011,0 hPa 0,0 l/m 0,5 km/h (0 Bft) SW 10,8 C 11,6 C 1,2 km/h (1 Bft)
26.04.2013 08:00 15,4 C 83 % 1011,0 hPa 0,0 l/m 2,8 km/h (1 Bft) W 12,6 C 15,4 C 7,8 km/h (2 Bft)
26.04.2013 09:00 17,7 C 72 % 1010,5 hPa 0,0 l/m 4,3 km/h (1 Bft) SW 12,7 C 17,8 C 10,5 km/h (2 Bft)
26.04.2013 10:00 19,7 C 62 % 1009,9 hPa 0,0 l/m 4,5 km/h (1 Bft) SW 12,1 C 19,7 C 11,0 km/h (2 Bft)
26.04.2013 11:00 20,6 C 54 % 1008,9 hPa 0,0 l/m 4,7 km/h (1 Bft) W-NW 11,0 C 20,6 C 11,8 km/h (2 Bft)
26.04.2013 12:00 21,6 C 51 % 1007,8 hPa 0,0 l/m 3,5 km/h (1 Bft) W 11,1 C 21,6 C 9,4 km/h (2 Bft)
26.04.2013 13:00 22,0 C 49 % 1006,6 hPa 0,0 l/m 3,5 km/h (1 Bft) S-SW 10,9 C 22,0 C 8,6 km/h (2 Bft)
26.04.2013 14:00 21,6 C 52 % 1005,4 hPa 0,0 l/m 1,7 km/h (1 Bft) N 11,2 C 21,6 C 3,5 km/h (1 Bft)
26.04.2013 15:00 18,7 C 73 % 1004,4 hPa 0,0 l/m 2,0 km/h (1 Bft) NO 13,6 C 18,7 C 3,6 km/h (1 Bft)
26.04.2013 16:00 16,3 C 81 % 1004,4 hPa 0,0 l/m 11,5 km/h (2 Bft) N-NW 12,9 C 13,9 C 18,2 km/h (3 Bft)
26.04.2013 17:00 13,3 C 88 % 1004,1 hPa 0,0 l/m 14,8 km/h (3 Bft) N 11,4 C 9,2 C 23,4 km/h (4 Bft)
26.04.2013 18:00 12,1 C 90 % 1004,1 hPa 0,0 l/m 12,2 km/h (2 Bft) N-NW 10,5 C 8,9 C 19,2 km/h (3 Bft)
26.04.2013 19:00 10,0 C 92 % 1004,5 hPa 0,8 l/m 17,0 km/h (3 Bft) N 8,7 C 4,5 C 26,2 km/h (4 Bft)
26.04.2013 20:00 7,1 C 92 % 1005,2 hPa 0,6 l/m 20,0 km/h (4 Bft) N 5,9 C -0,5 C 30,3 km/h (5 Bft)
26.04.2013 21:00 6,4 C 94 % 1005,5 hPa 1,6 l/m 13,0 km/h (3 Bft) N-NW 5,5 C 2,0 C 20,5 km/h (4 Bft)
26.04.2013 22:00 6,4 C 95 % 1005,8 hPa 1,0 l/m 9,4 km/h (2 Bft) N-NW 5,6 C 4,1 C 14,2 km/h (3 Bft)
26.04.2013 23:00 6,4 C 95 % 1006,3 hPa 0,8 l/m 6,5 km/h (2 Bft) N-NW 5,7 C 6,0 C 11,3 km/h (2 Bft)
27.04.2013 00:00 6,3 C 95 % 1006,5 hPa 0,6 l/m 6,3 km/h (2 Bft) N-NW 5,5 C 6,1 C 10,5 km/h (2 Bft)
27.04.2013 01:00 6,1 C 95 % 1006,7 hPa 0,2 l/m 5,2 km/h (1 Bft) N-NW 5,4 C 6,0 C 9,6 km/h (2 Bft)
27.04.2013 02:00 5,8 C 95 % 1006,8 hPa 0,0 l/m 7,1 km/h (2 Bft) N-NW 5,0 C 4,9 C 11,7 km/h (2 Bft)
27.04.2013 03:00 5,6 C 95 % 1006,9 hPa 0,4 l/m 4,5 km/h (1 Bft) NW 4,8 C 5,6 C 8,7 km/h (2 Bft)
27.04.2013 04:00 5,3 C 95 % 1007,1 hPa 0,2 l/m 6,1 km/h (2 Bft) N-NW 4,6 C 5,0 C 9,7 km/h (2 Bft)
27.04.2013 05:00 4,9 C 95 % 1007,1 hPa 0,2 l/m 7,2 km/h (2 Bft) N-NW 4,2 C 4,2 C 11,8 km/h (2 Bft)
27.04.2013 06:00 4,8 C 95 % 1007,8 hPa 0,2 l/m 5,5 km/h (2 Bft) N-NW 4,1 C 4,8 C 8,3 km/h (2 Bft)
27.04.2013 07:00 4,8 C 95 % 1008,0 hPa 0,2 l/m 4,3 km/h (1 Bft) N-NW 4,1 C 4,8 C 7,2 km/h (2 Bft)
27.04.2013 08:00 5,1 C 95 % 1008,3 hPa 0,0 l/m 3,3 km/h (1 Bft) N-NW 4,4 C 5,1 C 5,6 km/h (2 Bft)
27.04.2013 09:00 5,6 C 95 % 1008,9 hPa 0,0 l/m 1,3 km/h (1 Bft) N-NO 4,8 C 5,6 C 3,5 km/h (1 Bft)
27.04.2013 10:00 6,2 C 93 % 1009,5 hPa 0,2 l/m 4,3 km/h (1 Bft) N-NW 5,2 C 6,2 C 7,5 km/h (2 Bft)
27.04.2013 11:00 6,9 C 89 % 1010,0 hPa 0,0 l/m 5,1 km/h (1 Bft) N-NW 5,3 C 7,0 C 8,6 km/h (2 Bft)
27.04.2013 12:00 6,8 C 90 % 1010,3 hPa 0,6 l/m 6,7 km/h (2 Bft) N-NW 5,3 C 6,3 C 10,2 km/h (2 Bft)
27.04.2013 13:00 7,9 C 88 % 1010,3 hPa 0,2 l/m 7,5 km/h (2 Bft) N-NO 6,0 C 6,6 C 13,2 km/h (3 Bft)
27.04.2013 14:00 7,0 C 91 % 1010,7 hPa 0,6 l/m 6,7 km/h (2 Bft) N-NO 5,7 C 6,5 C 10,8 km/h (2 Bft)
27.04.2013 15:00 7,3 C 90 % 1010,8 hPa 0,0 l/m 8,2 km/h (2 Bft) N-NO 5,9 C 6,0 C 12,4 km/h (2 Bft)
27.04.2013 16:00 7,9 C 89 % 1010,9 hPa 0,2 l/m 7,2 km/h (2 Bft) N-NO 6,2 C 7,1 C 11,4 km/h (2 Bft)
27.04.2013 17:00 8,7 C 82 % 1011,0 hPa 0,0 l/m 9,5 km/h (2 Bft) N-NW 5,8 C 6,6 C 15,0 km/h (3 Bft)
27.04.2013 18:00 9,0 C 78 % 1011,1 hPa 0,0 l/m 8,4 km/h (2 Bft) N-NO 5,2 C 7,5 C 14,1 km/h (3 Bft)
27.04.2013 19:00 8,4 C 79 % 1011,3 hPa 0,0 l/m 7,8 km/h (2 Bft) N 5,0 C 7,1 C 12,3 km/h (2 Bft)
27.04.2013 20:00 6,9 C 88 % 1011,9 hPa 0,0 l/m 0,4 km/h (0 Bft) N-NO 5,1 C 6,9 C 0,8 km/h (0 Bft)
27.04.2013 21:00 6,9 C 88 % 1012,5 hPa 0,0 l/m 2,7 km/h (1 Bft) N-NW 5,1 C 6,8 C 5,5 km/h (2 Bft)
27.04.2013 22:00 6,5 C 84 % 1012,8 hPa 0,0 l/m 7,6 km/h (2 Bft) N-NW 4,0 C 5,6 C 12,2 km/h (2 Bft)
27.04.2013 23:00 5,6 C 86 % 1013,1 hPa 0,0 l/m 5,7 km/h (2 Bft) N-NW 3,5 C 5,5 C 9,5 km/h (2 Bft)
28.04.2013 00:00 4,9 C 87 % 1013,4 hPa 0,0 l/m 10,5 km/h (2 Bft) N-NW 3,0 C 1,7 C 17,6 km/h (3 Bft)
28.04.2013 01:00 3,7 C 89 % 1013,6 hPa 0,0 l/m 6,7 km/h (2 Bft) N 2,1 C 3,2 C 11,1 km/h (2 Bft)
28.04.2013 02:00 2,8 C 91 % 1013,7 hPa 0,0 l/m 4,7 km/h (1 Bft) N 1,5 C 2,9 C 8,0 km/h (2 Bft)
28.04.2013 03:00 3,1 C 91 % 1014,2 hPa 0,0 l/m 3,5 km/h (1 Bft) N 1,8 C 3,1 C 6,5 km/h (2 Bft)
28.04.2013 04:00 2,4 C 91 % 1014,7 hPa 0,0 l/m 0,0 km/h (0 Bft) N 1,1 C 2,4 C 0,8 km/h (0 Bft)
28.04.2013 05:00 1,6 C 93 % 1014,9 hPa 0,0 l/m 0,0 km/h (0 Bft) N 0,5 C 1,6 C 0,4 km/h (0 Bft)
28.04.2013 06:00 0,9 C 94 % 1015,3 hPa 0,0 l/m 1,3 km/h (1 Bft) W 0,0 C 0,9 C 4,0 km/h (1 Bft)
28.04.2013 07:00 2,1 C 93 % 1015,9 hPa 0,0 l/m 1,3 km/h (1 Bft) W-NW 1,1 C 2,1 C 4,8 km/h (1 Bft)
28.04.2013 08:00 3,6 C 91 % 1016,4 hPa 0,0 l/m 1,9 km/h (1 Bft) W 2,2 C 3,6 C 5,9 km/h (2 Bft)
28.04.2013 09:00 5,1 C 89 % 1016,8 hPa 0,0 l/m 2,7 km/h (1 Bft) SW 3,4 C 5,1 C 6,4 km/h (2 Bft)
28.04.2013 10:00 6,9 C 84 % 1017,2 hPa 0,0 l/m 4,0 km/h (1 Bft) SW 4,3 C 6,9 C 9,7 km/h (2 Bft)
28.04.2013 11:00 8,2 C 71 % 1017,6 hPa 0,0 l/m 4,4 km/h (1 Bft) S-SW 3,2 C 8,2 C 11,1 km/h (2 Bft)
28.04.2013 12:00 9,0 C 64 % 1017,7 hPa 0,0 l/m 3,5 km/h (1 Bft) W-NW 2,4 C 9,0 C 10,5 km/h (2 Bft)
28.04.2013 13:00 10,1 C 60 % 1017,8 hPa 0,0 l/m 4,8 km/h (1 Bft) SW 2,5 C 10,0 C 10,5 km/h (2 Bft)
28.04.2013 14:00 11,0 C 52 % 1017,5 hPa 0,0 l/m 3,5 km/h (1 Bft) W-NW 1,3 C 11,0 C 8,7 km/h (2 Bft)
28.04.2013 15:00 11,8 C 50 % 1016,8 hPa 0,0 l/m 4,2 km/h (1 Bft) W 1,7 C 11,8 C 10,0 km/h (2 Bft)
28.04.2013 16:00 12,6 C 46 % 1016,1 hPa 0,0 l/m 4,0 km/h (1 Bft) S-SW 1,2 C 12,6 C 9,4 km/h (2 Bft)
28.04.2013 17:00 13,1 C 41 % 1015,9 hPa 0,0 l/m 4,9 km/h (1 Bft) SW 0,2 C 13,1 C 11,6 km/h (2 Bft)
28.04.2013 18:00 12,6 C 48 % 1015,6 hPa 0,0 l/m 5,4 km/h (1 Bft) S-SW 2,0 C 12,6 C 10,6 km/h (2 Bft)
28.04.2013 19:00 11,8 C 58 % 1015,4 hPa 0,0 l/m 4,0 km/h (1 Bft) SW 3,7 C 11,8 C 8,2 km/h (2 Bft)
28.04.2013 20:00 10,9 C 64 % 1015,3 hPa 0,0 l/m 1,7 km/h (1 Bft) S-SW 4,4 C 10,9 C 4,0 km/h (1 Bft)
28.04.2013 21:00 9,9 C 73 % 1015,5 hPa 0,0 l/m 0,5 km/h (0 Bft) S-SW 5,3 C 9,9 C 1,3 km/h (1 Bft)
28.04.2013 22:00 9,1 C 81 % 1015,1 hPa 0,0 l/m 0,3 km/h (0 Bft) S-SO 5,9 C 9,1 C 0,9 km/h (0 Bft)
28.04.2013 23:00 9,0 C 76 % 1014,8 hPa 0,0 l/m 4,2 km/h (1 Bft) S-SW 4,9 C 9,0 C 8,7 km/h (2 Bft)
Min-Datum _ 28.04.13 22.04.13 26.04.13 - 22.04.13 - 22.04.13 26.04.13 22.04.13
_ Min-Zeit 06:20 18:25 17:55 - 00:00 - 18:25 20:25 00:00
Minimum _ 0,7 C 26 % 1003,5 hPa - 0,0 km/h (0 Bft) - -4,0 C -1,6 C 0,0 km/h (0 Bft)
Max-Datum _ 26.04.13 26.04.13 24.04.13 26.04.13 26.04.13 - 26.04.13 26.04.13 26.04.13
_ Max-Zeit 14:00 06:55 10:10 21:00 19:50 - 15:20 14:00 20:20
Maximum _ 22,9 C 97 % 1026,3 hPa 1,6 l/m 22,5 km/h
N (4 Bft)
- 14,2 C 22,9 C 35,4 km/h
N (5 Bft)
Durchschnitt _ 11,0 C 76 % 1016,2 hPa #8,6 l/m 3,7 km/h (1 Bft) SW 6,4 C 10,7 C 7,8 km/h (2 Bft)